sensor_id;sensor_type;location;lat;lon;timestamp;temperature;humidity
32400;DHT22;45045;45.440;9.178;2023-02-11T00:00:25;14.20;67.80
32400;DHT22;45045;45.440;9.178;2023-02-11T00:02:50;14.20;67.90
32400;DHT22;45045;45.440;9.178;2023-02-11T00:05:16;14.20;67.90
32400;DHT22;45045;45.440;9.178;2023-02-11T00:07:41;14.20;68.10
32400;DHT22;45045;45.440;9.178;2023-02-11T00:10:07;14.20;68.20
32400;DHT22;45045;45.440;9.178;2023-02-11T00:12:34;14.20;68.10
32400;DHT22;45045;45.440;9.178;2023-02-11T00:15:00;14.10;68.00
32400;DHT22;45045;45.440;9.178;2023-02-11T00:17:25;14.10;68.10
32400;DHT22;45045;45.440;9.178;2023-02-11T00:19:51;14.10;68.00
32400;DHT22;45045;45.440;9.178;2023-02-11T00:22:17;14.10;68.10
32400;DHT22;45045;45.440;9.178;2023-02-11T00:24:43;14.10;68.00
32400;DHT22;45045;45.440;9.178;2023-02-11T00:27:09;14.10;68.00
32400;DHT22;45045;45.440;9.178;2023-02-11T00:29:36;14.10;68.10
32400;DHT22;45045;45.440;9.178;2023-02-11T00:32:02;14.00;68.00
32400;DHT22;45045;45.440;9.178;2023-02-11T00:34:30;14.00;67.90
32400;DHT22;45045;45.440;9.178;2023-02-11T00:36:56;14.00;67.80
32400;DHT22;45045;45.440;9.178;2023-02-11T00:39:21;14.00;67.60
32400;DHT22;45045;45.440;9.178;2023-02-11T00:41:47;14.00;67.50
32400;DHT22;45045;45.440;9.178;2023-02-11T00:44:12;14.00;67.50
32400;DHT22;45045;45.440;9.178;2023-02-11T00:46:38;14.00;67.30
32400;DHT22;45045;45.440;9.178;2023-02-11T00:49:04;14.00;67.30
32400;DHT22;45045;45.440;9.178;2023-02-11T00:51:29;14.00;67.20
32400;DHT22;45045;45.440;9.178;2023-02-11T00:53:55;13.90;66.90
32400;DHT22;45045;45.440;9.178;2023-02-11T00:56:21;13.90;67.30
32400;DHT22;45045;45.440;9.178;2023-02-11T00:58:46;13.90;67.70
32400;DHT22;45045;45.440;9.178;2023-02-11T01:01:12;13.90;68.00
32400;DHT22;45045;45.440;9.178;2023-02-11T01:03:38;13.90;68.30
32400;DHT22;45045;45.440;9.178;2023-02-11T01:06:06;13.90;68.40
32400;DHT22;45045;45.440;9.178;2023-02-11T01:08:31;13.80;68.40
32400;DHT22;45045;45.440;9.178;2023-02-11T01:11:02;13.80;69.30
32400;DHT22;45045;45.440;9.178;2023-02-11T01:13:29;13.80;70.90
32400;DHT22;45045;45.440;9.178;2023-02-11T01:15:57;13.80;71.30
32400;DHT22;45045;45.440;9.178;2023-02-11T01:18:23;13.90;71.70
32400;DHT22;45045;45.440;9.178;2023-02-11T01:20:50;13.80;72.20
32400;DHT22;45045;45.440;9.178;2023-02-11T01:23:16;13.80;72.50
32400;DHT22;45045;45.440;9.178;2023-02-11T01:25:41;13.80;72.80
32400;DHT22;45045;45.440;9.178;2023-02-11T01:28:22;13.90;73.20
32400;DHT22;45045;45.440;9.178;2023-02-11T01:30:50;13.80;73.30
32400;DHT22;45045;45.440;9.178;2023-02-11T01:33:16;13.80;73.10
32400;DHT22;45045;45.440;9.178;2023-02-11T01:35:42;13.80;73.00
32400;DHT22;45045;45.440;9.178;2023-02-11T01:38:15;13.80;72.90
32400;DHT22;45045;45.440;9.178;2023-02-11T01:40:49;13.80;72.90
32400;DHT22;45045;45.440;9.178;2023-02-11T01:43:15;13.70;72.80
32400;DHT22;45045;45.440;9.178;2023-02-11T01:48:17;13.70;73.40
32400;DHT22;45045;45.440;9.178;2023-02-11T01:50:44;13.70;73.40
32400;DHT22;45045;45.440;9.178;2023-02-11T01:53:11;13.70;73.20
32400;DHT22;45045;45.440;9.178;2023-02-11T01:55:56;13.80;73.10
32400;DHT22;45045;45.440;9.178;2023-02-11T01:58:43;13.70;72.90
32400;DHT22;45045;45.440;9.178;2023-02-11T02:01:12;13.70;73.00
32400;DHT22;45045;45.440;9.178;2023-02-11T02:03:42;13.60;72.80
32400;DHT22;45045;45.440;9.178;2023-02-11T02:06:20;13.70;72.90
32400;DHT22;45045;45.440;9.178;2023-02-11T02:09:02;13.60;72.70
32400;DHT22;45045;45.440;9.178;2023-02-11T02:11:28;13.60;72.60
32400;DHT22;45045;45.440;9.178;2023-02-11T02:13:54;13.60;72.50
32400;DHT22;45045;45.440;9.178;2023-02-11T02:16:21;13.50;72.40
32400;DHT22;45045;45.440;9.178;2023-02-11T02:38:21;13.40;71.90
32400;DHT22;45045;45.440;9.178;2023-02-11T02:40:54;13.40;71.90
32400;DHT22;45045;45.440;9.178;2023-02-11T02:43:23;13.40;72.00
32400;DHT22;45045;45.440;9.178;2023-02-11T02:45:50;13.40;71.90
32400;DHT22;45045;45.440;9.178;2023-02-11T02:48:29;13.30;71.90
32400;DHT22;45045;45.440;9.178;2023-02-11T02:53:53;13.40;71.90
32400;DHT22;45045;45.440;9.178;2023-02-11T03:04:56;13.30;71.70
32400;DHT22;45045;45.440;9.178;2023-02-11T03:10:01;13.30;71.90
32400;DHT22;45045;45.440;9.178;2023-02-11T03:12:32;13.30;71.90
32400;DHT22;45045;45.440;9.178;2023-02-11T03:15:00;13.20;71.80
32400;DHT22;45045;45.440;9.178;2023-02-11T03:17:27;13.20;71.80
32400;DHT22;45045;45.440;9.178;2023-02-11T03:19:55;13.20;71.90
32400;DHT22;45045;45.440;9.178;2023-02-11T03:22:32;13.20;72.00
32400;DHT22;45045;45.440;9.178;2023-02-11T03:25:00;13.20;72.00
32400;DHT22;45045;45.440;9.178;2023-02-11T03:30:00;13.10;71.90
32400;DHT22;45045;45.440;9.178;2023-02-11T03:32:38;13.10;72.70
32400;DHT22;45045;45.440;9.178;2023-02-11T03:35:16;13.10;72.00
32400;DHT22;45045;45.440;9.178;2023-02-11T03:37:47;13.10;72.00
32400;DHT22;45045;45.440;9.178;2023-02-11T03:40:27;13.10;72.20
32400;DHT22;45045;45.440;9.178;2023-02-11T03:42:59;13.10;72.30
32400;DHT22;45045;45.440;9.178;2023-02-11T03:45:27;13.00;72.20
32400;DHT22;45045;45.440;9.178;2023-02-11T03:47:59;13.00;72.30
32400;DHT22;45045;45.440;9.178;2023-02-11T03:50:27;13.00;72.20
32400;DHT22;45045;45.440;9.178;2023-02-11T03:52:55;13.00;72.10
32400;DHT22;45045;45.440;9.178;2023-02-11T03:55:22;13.00;72.20
32400;DHT22;45045;45.440;9.178;2023-02-11T03:57:50;12.90;72.20
32400;DHT22;45045;45.440;9.178;2023-02-11T04:00:16;13.00;72.30
32400;DHT22;45045;45.440;9.178;2023-02-11T04:02:42;12.90;72.20
32400;DHT22;45045;45.440;9.178;2023-02-11T04:05:09;12.90;72.40
32400;DHT22;45045;45.440;9.178;2023-02-11T04:07:35;12.90;72.00
32400;DHT22;45045;45.440;9.178;2023-02-11T04:10:01;12.90;72.20
32400;DHT22;45045;45.440;9.178;2023-02-11T04:12:27;12.90;72.00
32400;DHT22;45045;45.440;9.178;2023-02-11T04:14:52;12.80;72.20
32400;DHT22;45045;45.440;9.178;2023-02-11T04:17:18;12.80;72.30
32400;DHT22;45045;45.440;9.178;2023-02-11T04:19:43;12.80;72.40
32400;DHT22;45045;45.440;9.178;2023-02-11T04:22:09;12.80;72.70
32400;DHT22;45045;45.440;9.178;2023-02-11T04:24:35;12.80;72.70
32400;DHT22;45045;45.440;9.178;2023-02-11T04:27:01;12.80;72.80
32400;DHT22;45045;45.440;9.178;2023-02-11T04:29:26;12.70;72.90
32400;DHT22;45045;45.440;9.178;2023-02-11T04:31:53;12.70;73.10
32400;DHT22;45045;45.440;9.178;2023-02-11T04:34:19;12.70;73.10
32400;DHT22;45045;45.440;9.178;2023-02-11T04:36:44;12.70;73.30
32400;DHT22;45045;45.440;9.178;2023-02-11T04:39:10;12.70;73.20
32400;DHT22;45045;45.440;9.178;2023-02-11T04:41:36;12.70;73.10
32400;DHT22;45045;45.440;9.178;2023-02-11T04:44:02;12.60;73.20
32400;DHT22;45045;45.440;9.178;2023-02-11T04:46:27;12.60;73.20
32400;DHT22;45045;45.440;9.178;2023-02-11T04:48:53;12.60;73.20
32400;DHT22;45045;45.440;9.178;2023-02-11T04:51:19;12.60;73.10
32400;DHT22;45045;45.440;9.178;2023-02-11T04:53:44;12.60;73.10
32400;DHT22;45045;45.440;9.178;2023-02-11T04:56:10;12.60;73.00
32400;DHT22;45045;45.440;9.178;2023-02-11T04:58:35;12.60;73.00
32400;DHT22;45045;45.440;9.178;2023-02-11T05:01:08;12.60;72.90
32400;DHT22;45045;45.440;9.178;2023-02-11T05:03:35;12.50;72.80
32400;DHT22;45045;45.440;9.178;2023-02-11T05:06:01;12.50;72.80
32400;DHT22;45045;45.440;9.178;2023-02-11T05:08:27;12.50;72.80
32400;DHT22;45045;45.440;9.178;2023-02-11T05:10:52;12.50;72.80
32400;DHT22;45045;45.440;9.178;2023-02-11T05:13:18;12.50;72.80
32400;DHT22;45045;45.440;9.178;2023-02-11T05:15:45;12.40;72.80
32400;DHT22;45045;45.440;9.178;2023-02-11T05:18:10;12.40;72.80
32400;DHT22;45045;45.440;9.178;2023-02-11T05:20:41;12.40;72.90
32400;DHT22;45045;45.440;9.178;2023-02-11T05:23:07;12.40;73.00
32400;DHT22;45045;45.440;9.178;2023-02-11T05:25:33;12.40;72.90
32400;DHT22;45045;45.440;9.178;2023-02-11T05:27:59;12.40;72.90
32400;DHT22;45045;45.440;9.178;2023-02-11T05:30:24;12.40;72.90
32400;DHT22;45045;45.440;9.178;2023-02-11T05:32:50;12.40;72.80
32400;DHT22;45045;45.440;9.178;2023-02-11T05:35:16;12.30;72.80
32400;DHT22;45045;45.440;9.178;2023-02-11T05:37:42;12.30;73.10
32400;DHT22;45045;45.440;9.178;2023-02-11T05:40:09;12.30;72.90
32400;DHT22;45045;45.440;9.178;2023-02-11T05:42:34;12.30;72.80
32400;DHT22;45045;45.440;9.178;2023-02-11T05:45:00;12.30;72.80
32400;DHT22;45045;45.440;9.178;2023-02-11T05:47:26;12.30;72.90
32400;DHT22;45045;45.440;9.178;2023-02-11T05:49:52;12.30;73.10
32400;DHT22;45045;45.440;9.178;2023-02-11T05:52:19;12.30;73.00
32400;DHT22;45045;45.440;9.178;2023-02-11T05:54:45;12.20;73.00
32400;DHT22;45045;45.440;9.178;2023-02-11T05:57:11;12.20;73.00
32400;DHT22;45045;45.440;9.178;2023-02-11T05:59:37;12.20;73.10
32400;DHT22;45045;45.440;9.178;2023-02-11T06:02:03;12.20;73.10
32400;DHT22;45045;45.440;9.178;2023-02-11T06:04:29;12.20;73.00
32400;DHT22;45045;45.440;9.178;2023-02-11T06:06:55;12.10;73.00
32400;DHT22;45045;45.440;9.178;2023-02-11T06:09:21;12.10;72.40
32400;DHT22;45045;45.440;9.178;2023-02-11T06:11:46;12.10;71.90
32400;DHT22;45045;45.440;9.178;2023-02-11T06:14:12;12.10;71.70
32400;DHT22;45045;45.440;9.178;2023-02-11T06:16:38;12.00;71.70
32400;DHT22;45045;45.440;9.178;2023-02-11T06:19:04;12.00;71.80
32400;DHT22;45045;45.440;9.178;2023-02-11T06:21:30;12.00;71.70
32400;DHT22;45045;45.440;9.178;2023-02-11T06:23:56;12.00;71.70
32400;DHT22;45045;45.440;9.178;2023-02-11T06:26:22;12.00;71.80
32400;DHT22;45045;45.440;9.178;2023-02-11T06:28:48;11.90;71.80
32400;DHT22;45045;45.440;9.178;2023-02-11T06:31:15;11.90;71.80
32400;DHT22;45045;45.440;9.178;2023-02-11T06:33:41;11.90;71.90
32400;DHT22;45045;45.440;9.178;2023-02-11T06:36:16;12.00;72.10
32400;DHT22;45045;45.440;9.178;2023-02-11T06:38:42;12.00;72.00
32400;DHT22;45045;45.440;9.178;2023-02-11T06:41:10;12.00;72.00
32400;DHT22;45045;45.440;9.178;2023-02-11T06:43:35;12.00;72.10
32400;DHT22;45045;45.440;9.178;2023-02-11T06:46:01;11.90;72.00
32400;DHT22;45045;45.440;9.178;2023-02-11T06:48:27;11.90;72.00
32400;DHT22;45045;45.440;9.178;2023-02-11T06:50:53;11.90;72.10
32400;DHT22;45045;45.440;9.178;2023-02-11T06:53:19;11.90;72.20
32400;DHT22;45045;45.440;9.178;2023-02-11T06:55:44;11.90;72.20
32400;DHT22;45045;45.440;9.178;2023-02-11T06:58:10;11.80;72.30
32400;DHT22;45045;45.440;9.178;2023-02-11T07:00:36;11.90;72.40
32400;DHT22;45045;45.440;9.178;2023-02-11T07:03:02;11.80;72.40
32400;DHT22;45045;45.440;9.178;2023-02-11T07:05:27;11.80;72.30
32400;DHT22;45045;45.440;9.178;2023-02-11T07:07:53;11.80;72.40
32400;DHT22;45045;45.440;9.178;2023-02-11T07:10:18;11.90;72.50
32400;DHT22;45045;45.440;9.178;2023-02-11T07:12:44;11.90;72.60
32400;DHT22;45045;45.440;9.178;2023-02-11T07:15:10;11.90;72.60
32400;DHT22;45045;45.440;9.178;2023-02-11T07:17:35;11.90;72.50
32400;DHT22;45045;45.440;9.178;2023-02-11T07:20:01;11.90;72.70
32400;DHT22;45045;45.440;9.178;2023-02-11T07:22:27;11.90;72.70
32400;DHT22;45045;45.440;9.178;2023-02-11T07:24:53;11.90;72.70
32400;DHT22;45045;45.440;9.178;2023-02-11T07:27:18;11.90;72.80
32400;DHT22;45045;45.440;9.178;2023-02-11T07:29:44;11.90;72.80
32400;DHT22;45045;45.440;9.178;2023-02-11T07:32:12;12.00;72.60
32400;DHT22;45045;45.440;9.178;2023-02-11T07:34:37;12.00;72.50
32400;DHT22;45045;45.440;9.178;2023-02-11T07:37:03;12.10;72.40
32400;DHT22;45045;45.440;9.178;2023-02-11T07:39:29;12.10;72.00
32400;DHT22;45045;45.440;9.178;2023-02-11T07:41:55;12.20;72.10
32400;DHT22;45045;45.440;9.178;2023-02-11T07:44:21;12.20;72.00
32400;DHT22;45045;45.440;9.178;2023-02-11T07:46:47;12.30;71.80
32400;DHT22;45045;45.440;9.178;2023-02-11T07:49:14;12.30;71.90
32400;DHT22;45045;45.440;9.178;2023-02-11T07:51:39;12.40;71.60
32400;DHT22;45045;45.440;9.178;2023-02-11T07:54:06;12.40;71.60
32400;DHT22;45045;45.440;9.178;2023-02-11T07:56:32;12.50;71.40
32400;DHT22;45045;45.440;9.178;2023-02-11T07:59:02;12.50;71.10
32400;DHT22;45045;45.440;9.178;2023-02-11T08:01:28;12.60;70.90
32400;DHT22;45045;45.440;9.178;2023-02-11T08:03:56;12.70;70.80
32400;DHT22;45045;45.440;9.178;2023-02-11T08:06:23;12.70;70.50
32400;DHT22;45045;45.440;9.178;2023-02-11T08:08:49;12.80;70.20
32400;DHT22;45045;45.440;9.178;2023-02-11T08:11:20;12.90;70.20
32400;DHT22;45045;45.440;9.178;2023-02-11T08:13:46;12.90;69.70
32400;DHT22;45045;45.440;9.178;2023-02-11T08:16:27;13.00;69.50
32400;DHT22;45045;45.440;9.178;2023-02-11T08:18:55;13.20;69.30
32400;DHT22;45045;45.440;9.178;2023-02-11T08:21:21;13.30;68.20
32400;DHT22;45045;45.440;9.178;2023-02-11T08:23:47;13.30;68.40
32400;DHT22;45045;45.440;9.178;2023-02-11T08:26:19;13.40;68.20
32400;DHT22;45045;45.440;9.178;2023-02-11T08:28:47;13.40;67.40
32400;DHT22;45045;45.440;9.178;2023-02-11T08:31:16;13.50;67.80
32400;DHT22;45045;45.440;9.178;2023-02-11T08:33:42;13.50;67.60
32400;DHT22;45045;45.440;9.178;2023-02-11T08:36:19;13.60;67.10
32400;DHT22;45045;45.440;9.178;2023-02-11T08:38:46;13.70;66.90
32400;DHT22;45045;45.440;9.178;2023-02-11T08:41:12;13.70;65.90
32400;DHT22;45045;45.440;9.178;2023-02-11T08:43:42;13.80;66.50
32400;DHT22;45045;45.440;9.178;2023-02-11T08:46:11;13.90;66.40
32400;DHT22;45045;45.440;9.178;2023-02-11T08:48:36;14.00;65.90
32400;DHT22;45045;45.440;9.178;2023-02-11T08:51:12;14.10;65.50
32400;DHT22;45045;45.440;9.178;2023-02-11T08:53:38;14.00;54.00
32400;DHT22;45045;45.440;9.178;2023-02-11T08:56:04;14.00;53.70
32400;DHT22;45045;45.440;9.178;2023-02-11T08:58:31;13.70;52.80
32400;DHT22;45045;45.440;9.178;2023-02-11T09:00:57;13.60;53.00
32400;DHT22;45045;45.440;9.178;2023-02-11T09:03:23;13.90;53.00
32400;DHT22;45045;45.440;9.178;2023-02-11T09:05:50;14.00;51.40
32400;DHT22;45045;45.440;9.178;2023-02-11T09:08:18;14.20;52.10
32400;DHT22;45045;45.440;9.178;2023-02-11T09:10:43;14.50;53.40
32400;DHT22;45045;45.440;9.178;2023-02-11T09:13:09;14.80;52.40
32400;DHT22;45045;45.440;9.178;2023-02-11T09:15:35;15.10;51.10
32400;DHT22;45045;45.440;9.178;2023-02-11T09:18:01;15.00;49.20
32400;DHT22;45045;45.440;9.178;2023-02-11T09:20:27;14.30;49.30
32400;DHT22;45045;45.440;9.178;2023-02-11T09:22:54;14.30;56.40
32400;DHT22;45045;45.440;9.178;2023-02-11T09:25:21;14.80;52.30
32400;DHT22;45045;45.440;9.178;2023-02-11T09:27:46;15.00;50.60
32400;DHT22;45045;45.440;9.178;2023-02-11T09:30:12;15.40;49.90
32400;DHT22;45045;45.440;9.178;2023-02-11T09:32:38;15.40;49.10
32400;DHT22;45045;45.440;9.178;2023-02-11T09:35:04;15.50;57.20
32400;DHT22;45045;45.440;9.178;2023-02-11T09:37:29;15.70;62.30
32400;DHT22;45045;45.440;9.178;2023-02-11T09:39:55;15.80;61.70
32400;DHT22;45045;45.440;9.178;2023-02-11T09:45:28;16.10;57.80
32400;DHT22;45045;45.440;9.178;2023-02-11T09:48:16;16.20;57.60
32400;DHT22;45045;45.440;9.178;2023-02-11T09:50:53;16.40;51.10
32400;DHT22;45045;45.440;9.178;2023-02-11T09:53:25;16.40;49.90
32400;DHT22;45045;45.440;9.178;2023-02-11T09:55:53;16.20;48.00
32400;DHT22;45045;45.440;9.178;2023-02-11T09:58:29;15.70;46.90
32400;DHT22;45045;45.440;9.178;2023-02-11T10:09:30;16.30;58.30
32400;DHT22;45045;45.440;9.178;2023-02-11T10:23:08;17.30;55.70
32400;DHT22;45045;45.440;9.178;2023-02-11T10:25:42;17.40;54.70
32400;DHT22;45045;45.440;9.178;2023-02-11T10:36:03;18.60;44.20
32400;DHT22;45045;45.440;9.178;2023-02-11T10:38:30;18.70;43.70
32400;DHT22;45045;45.440;9.178;2023-02-11T10:40:58;18.80;43.60
32400;DHT22;45045;45.440;9.178;2023-02-11T10:43:27;19.00;42.50
32400;DHT22;45045;45.440;9.178;2023-02-11T10:45:55;18.50;42.30
32400;DHT22;45045;45.440;9.178;2023-02-11T10:48:47;18.60;42.70
32400;DHT22;45045;45.440;9.178;2023-02-11T10:53:49;18.90;42.00
32400;DHT22;45045;45.440;9.178;2023-02-11T10:56:24;19.10;41.60
32400;DHT22;45045;45.440;9.178;2023-02-11T10:59:00;19.20;41.10
32400;DHT22;45045;45.440;9.178;2023-02-11T11:01:45;19.70;40.50
32400;DHT22;45045;45.440;9.178;2023-02-11T11:04:40;19.30;40.20
32400;DHT22;45045;45.440;9.178;2023-02-11T11:07:19;19.20;39.90
32400;DHT22;45045;45.440;9.178;2023-02-11T11:09:52;19.40;40.30
32400;DHT22;45045;45.440;9.178;2023-02-11T11:12:32;19.10;39.60
32400;DHT22;45045;45.440;9.178;2023-02-11T11:17:41;19.80;39.50
32400;DHT22;45045;45.440;9.178;2023-02-11T11:20:14;20.30;39.50
32400;DHT22;45045;45.440;9.178;2023-02-11T11:22:42;20.60;37.20
32400;DHT22;45045;45.440;9.178;2023-02-11T11:25:27;20.40;37.60
32400;DHT22;45045;45.440;9.178;2023-02-11T11:27:59;19.80;37.70
32400;DHT22;45045;45.440;9.178;2023-02-11T11:30:38;19.60;37.90
32400;DHT22;45045;45.440;9.178;2023-02-11T11:33:19;19.60;38.30
32400;DHT22;45045;45.440;9.178;2023-02-11T11:36:02;19.50;42.50
32400;DHT22;45045;45.440;9.178;2023-02-11T11:38:30;20.00;39.40
32400;DHT22;45045;45.440;9.178;2023-02-11T11:44:02;20.30;45.80
32400;DHT22;45045;45.440;9.178;2023-02-11T11:46:35;21.00;36.80
32400;DHT22;45045;45.440;9.178;2023-02-11T11:49:27;20.70;43.10
32400;DHT22;45045;45.440;9.178;2023-02-11T11:52:17;20.70;48.20
32400;DHT22;45045;45.440;9.178;2023-02-11T11:54:58;20.80;47.30
32400;DHT22;45045;45.440;9.178;2023-02-11T11:57:26;21.80;36.90
32400;DHT22;45045;45.440;9.178;2023-02-11T12:00:00;21.70;35.20
32400;DHT22;45045;45.440;9.178;2023-02-11T12:11:05;19.80;35.10
32400;DHT22;45045;45.440;9.178;2023-02-11T12:23:06;21.10;35.80
32400;DHT22;45045;45.440;9.178;2023-02-11T12:28:56;22.10;33.60
32400;DHT22;45045;45.440;9.178;2023-02-11T12:34:49;22.60;59.90
32400;DHT22;45045;45.440;9.178;2023-02-11T12:37:29;22.50;63.70
32400;DHT22;45045;45.440;9.178;2023-02-11T12:45:59;22.30;60.00
32400;DHT22;45045;45.440;9.178;2023-02-11T12:57:14;22.40;54.00
32400;DHT22;45045;45.440;9.178;2023-02-11T13:02:32;22.30;52.10
32400;DHT22;45045;45.440;9.178;2023-02-11T13:07:54;22.20;50.80
32400;DHT22;45045;45.440;9.178;2023-02-11T13:10:23;22.20;50.20
32400;DHT22;45045;45.440;9.178;2023-02-11T13:12:52;22.10;49.30
32400;DHT22;45045;45.440;9.178;2023-02-11T13:15:40;22.10;48.50
32400;DHT22;45045;45.440;9.178;2023-02-11T13:18:34;22.10;47.90
32400;DHT22;45045;45.440;9.178;2023-02-11T13:24:21;22.30;38.60
32400;DHT22;45045;45.440;9.178;2023-02-11T13:27:01;22.80;37.80
32400;DHT22;45045;45.440;9.178;2023-02-11T13:38:00;22.80;38.80
32400;DHT22;45045;45.440;9.178;2023-02-11T13:40:35;23.00;37.30
32400;DHT22;45045;45.440;9.178;2023-02-11T13:43:06;22.70;44.20
32400;DHT22;45045;45.440;9.178;2023-02-11T13:45:52;22.80;35.60
32400;DHT22;45045;45.440;9.178;2023-02-11T13:48:28;22.20;32.40
32400;DHT22;45045;45.440;9.178;2023-02-11T13:54:04;22.60;34.50
32400;DHT22;45045;45.440;9.178;2023-02-11T13:56:40;22.50;30.80
32400;DHT22;45045;45.440;9.178;2023-02-11T14:02:31;22.00;31.30
32400;DHT22;45045;45.440;9.178;2023-02-11T14:10:59;22.50;31.70
32400;DHT22;45045;45.440;9.178;2023-02-11T14:13:33;22.40;31.20
32400;DHT22;45045;45.440;9.178;2023-02-11T14:16:08;21.90;29.50
32400;DHT22;45045;45.440;9.178;2023-02-11T14:19:02;22.30;31.30
32400;DHT22;45045;45.440;9.178;2023-02-11T14:21:38;22.80;33.70
32400;DHT22;45045;45.440;9.178;2023-02-11T14:34:54;23.20;37.60
32400;DHT22;45045;45.440;9.178;2023-02-11T14:37:49;23.10;34.20
32400;DHT22;45045;45.440;9.178;2023-02-11T14:42:52;23.00;40.00
32400;DHT22;45045;45.440;9.178;2023-02-11T14:45:38;22.80;36.10
32400;DHT22;45045;45.440;9.178;2023-02-11T14:48:30;22.70;43.90
32400;DHT22;45045;45.440;9.178;2023-02-11T14:51:18;22.50;45.30
32400;DHT22;45045;45.440;9.178;2023-02-11T14:53:48;22.20;39.30
32400;DHT22;45045;45.440;9.178;2023-02-11T14:56:24;21.20;30.50
32400;DHT22;45045;45.440;9.178;2023-02-11T14:58:52;21.30;39.50
32400;DHT22;45045;45.440;9.178;2023-02-11T15:04:26;20.90;30.80
32400;DHT22;45045;45.440;9.178;2023-02-11T15:06:53;20.30;33.40
32400;DHT22;45045;45.440;9.178;2023-02-11T15:09:22;20.70;40.70
32400;DHT22;45045;45.440;9.178;2023-02-11T15:11:55;21.20;49.00
32400;DHT22;45045;45.440;9.178;2023-02-11T15:14:35;21.40;49.20
32400;DHT22;45045;45.440;9.178;2023-02-11T15:17:05;21.50;40.60
32400;DHT22;45045;45.440;9.178;2023-02-11T15:19:38;21.40;51.00
32400;DHT22;45045;45.440;9.178;2023-02-11T15:22:14;21.50;37.30
32400;DHT22;45045;45.440;9.178;2023-02-11T15:24:42;21.30;37.00
32400;DHT22;45045;45.440;9.178;2023-02-11T15:29:47;21.10;38.00
32400;DHT22;45045;45.440;9.178;2023-02-11T15:32:18;21.10;36.40
32400;DHT22;45045;45.440;9.178;2023-02-11T15:34:48;20.40;31.90
32400;DHT22;45045;45.440;9.178;2023-02-11T15:37:25;20.50;34.50
32400;DHT22;45045;45.440;9.178;2023-02-11T15:39:53;19.90;32.10
32400;DHT22;45045;45.440;9.178;2023-02-11T15:42:28;19.90;42.60
32400;DHT22;45045;45.440;9.178;2023-02-11T15:47:52;19.70;33.10
32400;DHT22;45045;45.440;9.178;2023-02-11T15:50:21;19.70;33.90
32400;DHT22;45045;45.440;9.178;2023-02-11T15:52:49;19.80;47.30
32400;DHT22;45045;45.440;9.178;2023-02-11T15:55:17;20.00;45.10
32400;DHT22;45045;45.440;9.178;2023-02-11T15:57:48;20.10;46.60
32400;DHT22;45045;45.440;9.178;2023-02-11T16:00:17;19.90;34.40
32400;DHT22;45045;45.440;9.178;2023-02-11T16:02:46;19.50;34.60
32400;DHT22;45045;45.440;9.178;2023-02-11T16:05:46;19.70;35.50
32400;DHT22;45045;45.440;9.178;2023-02-11T16:08:27;19.20;34.00
32400;DHT22;45045;45.440;9.178;2023-02-11T16:11:06;18.60;34.80
32400;DHT22;45045;45.440;9.178;2023-02-11T16:13:45;18.50;35.30
32400;DHT22;45045;45.440;9.178;2023-02-11T16:16:22;18.50;38.10
32400;DHT22;45045;45.440;9.178;2023-02-11T16:18:51;18.40;36.70
32400;DHT22;45045;45.440;9.178;2023-02-11T16:21:18;18.20;35.80
32400;DHT22;45045;45.440;9.178;2023-02-11T16:23:54;18.00;36.00
32400;DHT22;45045;45.440;9.178;2023-02-11T16:26:35;18.00;36.40
32400;DHT22;45045;45.440;9.178;2023-02-11T16:29:10;18.00;36.10
32400;DHT22;45045;45.440;9.178;2023-02-11T16:31:40;18.20;37.30
32400;DHT22;45045;45.440;9.178;2023-02-11T16:34:24;18.60;43.80
32400;DHT22;45045;45.440;9.178;2023-02-11T16:36:51;18.90;40.50
32400;DHT22;45045;45.440;9.178;2023-02-11T16:39:19;19.00;42.40
32400;DHT22;45045;45.440;9.178;2023-02-11T16:41:47;18.50;36.30
32400;DHT22;45045;45.440;9.178;2023-02-11T16:44:15;18.50;42.40
32400;DHT22;45045;45.440;9.178;2023-02-11T16:46:45;18.50;39.90
32400;DHT22;45045;45.440;9.178;2023-02-11T16:49:23;18.30;36.70
32400;DHT22;45045;45.440;9.178;2023-02-11T16:51:51;18.40;39.00
32400;DHT22;45045;45.440;9.178;2023-02-11T16:54:18;18.30;37.10
32400;DHT22;45045;45.440;9.178;2023-02-11T16:56:44;18.20;36.90
32400;DHT22;45045;45.440;9.178;2023-02-11T16:59:09;18.30;37.20
32400;DHT22;45045;45.440;9.178;2023-02-11T17:01:37;18.30;37.20
32400;DHT22;45045;45.440;9.178;2023-02-11T17:04:04;18.30;37.10
32400;DHT22;45045;45.440;9.178;2023-02-11T17:06:30;18.30;37.10
32400;DHT22;45045;45.440;9.178;2023-02-11T17:08:57;18.30;37.20
32400;DHT22;45045;45.440;9.178;2023-02-11T17:11:22;18.30;37.30
32400;DHT22;45045;45.440;9.178;2023-02-11T17:13:48;18.20;37.70
32400;DHT22;45045;45.440;9.178;2023-02-11T17:16:19;18.40;47.80
32400;DHT22;45045;45.440;9.178;2023-02-11T17:18:46;18.50;50.90
32400;DHT22;45045;45.440;9.178;2023-02-11T17:21:12;18.60;50.30
32400;DHT22;45045;45.440;9.178;2023-02-11T17:23:38;18.70;54.00
32400;DHT22;45045;45.440;9.178;2023-02-11T17:26:04;18.70;50.20
32400;DHT22;45045;45.440;9.178;2023-02-11T17:28:30;18.20;39.30
32400;DHT22;45045;45.440;9.178;2023-02-11T17:30:57;18.10;46.90
32400;DHT22;45045;45.440;9.178;2023-02-11T17:33:23;18.20;54.10
32400;DHT22;45045;45.440;9.178;2023-02-11T17:35:49;18.40;57.10
32400;DHT22;45045;45.440;9.178;2023-02-11T17:38:15;18.50;58.10
32400;DHT22;45045;45.440;9.178;2023-02-11T17:40:41;18.50;58.40
32400;DHT22;45045;45.440;9.178;2023-02-11T17:43:07;18.60;58.70
32400;DHT22;45045;45.440;9.178;2023-02-11T17:45:33;18.60;57.70
32400;DHT22;45045;45.440;9.178;2023-02-11T17:47:59;18.60;60.00
32400;DHT22;45045;45.440;9.178;2023-02-11T17:50:26;18.60;59.80
32400;DHT22;45045;45.440;9.178;2023-02-11T17:52:52;18.50;60.60
32400;DHT22;45045;45.440;9.178;2023-02-11T17:55:19;18.50;60.90
32400;DHT22;45045;45.440;9.178;2023-02-11T17:57:46;18.50;61.50
32400;DHT22;45045;45.440;9.178;2023-02-11T18:00:12;18.50;62.00
32400;DHT22;45045;45.440;9.178;2023-02-11T18:02:38;18.50;62.00
32400;DHT22;45045;45.440;9.178;2023-02-11T18:05:04;18.40;58.20
32400;DHT22;45045;45.440;9.178;2023-02-11T18:07:30;18.40;61.40
32400;DHT22;45045;45.440;9.178;2023-02-11T18:09:57;18.40;61.90
32400;DHT22;45045;45.440;9.178;2023-02-11T18:12:22;16.80;41.40
32400;DHT22;45045;45.440;9.178;2023-02-11T18:14:53;15.40;43.50
32400;DHT22;45045;45.440;9.178;2023-02-11T18:17:20;14.30;45.60
32400;DHT22;45045;45.440;9.178;2023-02-11T18:19:48;13.70;49.10
32400;DHT22;45045;45.440;9.178;2023-02-11T18:22:15;13.40;48.90
32400;DHT22;45045;45.440;9.178;2023-02-11T18:24:41;13.20;49.40
32400;DHT22;45045;45.440;9.178;2023-02-11T18:27:07;13.00;50.40
32400;DHT22;45045;45.440;9.178;2023-02-11T18:29:33;12.80;49.90
32400;DHT22;45045;45.440;9.178;2023-02-11T18:32:00;12.60;49.70